Time;durP1;ratioP1;P1;durP2;ratioP2;P2;SDS_P1;SDS_P2;PMS_P1;PMS_P2;Temp;Humidity;BMP_temperature;BMP_pressure;BME280_temperature;BME280_humidity;BME280_pressure;Samples;Min_cycle;Max_cycle;Signal;HPM_P1;HPM_P2
2020/12/02 00:01:33;;;;;;;9.20;8.40;;;7.20;62.80;;;;;;5028516;28;20218;-68
2020/12/02 00:04:06;;;;;;;8.60;7.90;;;7.20;62.80;;;;;;5030160;28;20675;-69
2020/12/02 00:06:34;;;;;;;8.17;7.47;;;7.20;62.90;;;;;;5031246;28;20214;-70
2020/12/02 00:09:11;;;;;;;7.67;7.03;;;7.20;62.70;;;;;;5030290;28;20210;-70
2020/12/02 00:11:37;;;;;;;8.37;7.67;;;7.20;62.80;;;;;;5027701;28;20271;-69
2020/12/02 00:14:12;;;;;;;9.50;8.70;;;7.20;62.90;;;;;;5030351;28;20214;-70
2020/12/02 00:16:38;;;;;;;10.53;9.60;;;7.20;62.80;;;;;;5030908;28;20736;-70
2020/12/02 00:19:06;;;;;;;10.70;9.70;;;7.20;62.60;;;;;;5031403;28;20214;-69
2020/12/02 00:21:33;;;;;;;10.67;9.67;;;7.20;62.40;;;;;;5032335;28;20207;-70
2020/12/02 00:24:01;;;;;;;10.10;9.20;;;7.10;62.20;;;;;;5030380;28;20590;-69
2020/12/02 00:26:28;;;;;;;11.10;10.00;;;7.10;62.20;;;;;;5030469;28;20260;-69
2020/12/02 00:28:55;;;;;;;10.83;9.83;;;7.10;63.00;;;;;;5029767;28;20263;-71
2020/12/02 00:31:23;;;;;;;10.97;9.97;;;7.00;62.20;;;;;;5027186;28;20210;-69
2020/12/02 00:33:49;;;;;;;10.93;9.83;;;7.00;62.30;;;;;;5029306;28;20230;-69
2020/12/02 00:36:17;;;;;;;10.77;9.77;;;7.00;62.40;;;;;;5032336;28;20298;-68
2020/12/02 00:38:44;;;;;;;11.63;10.57;;;6.90;62.30;;;;;;5032000;28;20217;-70
2020/12/02 00:41:12;;;;;;;12.13;11.03;;;6.90;62.30;;;;;;5030103;28;20604;-70
2020/12/02 00:43:38;;;;;;;13.83;12.43;;;6.90;62.40;;;;;;5030378;28;20614;-69
2020/12/02 00:46:06;;;;;;;13.60;12.30;;;6.90;62.40;;;;;;5031602;28;20249;-69
2020/12/02 00:48:35;;;;;;;13.27;12.07;;;6.80;62.30;;;;;;5028974;28;20210;-70
2020/12/02 00:51:05;;;;;;;16.60;15.00;;;6.80;62.30;;;;;;5027914;28;20213;-71
2020/12/02 00:53:34;;;;;;;16.20;14.67;;;6.80;62.20;;;;;;5032440;28;20603;-70
2020/12/02 00:56:02;;;;;;;18.67;16.77;;;6.70;62.00;;;;;;5030200;28;20211;-69
2020/12/02 00:58:44;;;;;;;18.50;16.60;;;6.70;61.90;;;;;;5029891;28;20210;-69
2020/12/02 01:01:14;;;;;;;17.37;15.60;;;6.60;61.70;;;;;;5028863;28;20271;-69
2020/12/02 01:03:41;;;;;;;17.93;16.13;;;6.60;62.50;;;;;;5028427;28;20234;-69
2020/12/02 01:06:11;;;;;;;17.77;16.00;;;6.50;61.70;;;;;;5028276;28;20207;-71
2020/12/02 01:08:42;;;;;;;17.50;15.73;;;6.40;61.80;;;;;;5028900;28;20226;-70
2020/12/02 01:11:15;;;;;;;18.47;16.67;;;6.40;61.90;;;;;;5029014;28;20206;-69
2020/12/02 01:13:43;;;;;;;18.43;16.73;;;6.30;61.90;;;;;;5019465;28;20245;-70
2020/12/02 01:16:14;;;;;;;18.40;16.60;;;6.30;62.00;;;;;;5028168;28;21077;-69
2020/12/02 01:18:42;;;;;;;19.83;17.77;;;6.20;62.00;;;;;;5028195;28;20215;-68
2020/12/02 01:21:23;;;;;;;17.73;16.00;;;6.20;62.00;;;;;;5028945;28;20210;-69
2020/12/02 01:23:57;;;;;;;18.43;16.63;;;6.10;61.90;;;;;;5027936;28;20746;-70
2020/12/02 01:26:32;;;;;;;19.80;17.80;;;6.10;61.90;;;;;;5025069;28;20214;-69
2020/12/02 01:29:01;;;;;;;17.43;15.63;;;6.10;61.80;;;;;;5027183;28;20205;-70
2020/12/02 01:31:28;;;;;;;17.33;15.43;;;6.10;61.70;;;;;;5025922;28;20221;-69
2020/12/02 01:33:56;;;;;;;18.30;16.50;;;6.00;61.80;;;;;;5032884;28;20260;-70
2020/12/02 01:36:31;;;;;;;16.93;15.23;;;6.00;61.80;;;;;;5032455;28;20214;-70
2020/12/02 01:39:00;;;;;;;16.17;14.63;;;5.90;61.80;;;;;;5042294;28;20201;-68
2020/12/02 01:41:27;;;;;;;17.87;16.10;;;5.90;61.90;;;;;;5039417;28;20203;-68
2020/12/02 01:43:54;;;;;;;17.60;15.70;;;5.90;61.90;;;;;;5035801;28;20214;-69
2020/12/02 01:46:34;;;;;;;16.13;14.40;;;5.80;61.90;;;;;;5028791;28;20297;-69
2020/12/02 01:49:23;;;;;;;16.00;14.40;;;5.80;62.00;;;;;;5029047;28;20206;-68
2020/12/02 01:52:06;;;;;;;17.13;15.47;;;5.80;62.10;;;;;;5025951;28;20235;-69
2020/12/02 01:54:41;;;;;;;15.83;14.23;;;5.80;62.00;;;;;;5028023;28;20307;-67
2020/12/02 01:57:21;;;;;;;15.00;13.50;;;5.70;61.90;;;;;;5027651;28;20202;-69
2020/12/02 01:59:58;;;;;;;14.90;13.40;;;5.70;61.90;;;;;;5028295;28;20229;-69
2020/12/02 02:02:38;;;;;;;14.43;13.03;;;5.60;61.70;;;;;;5027856;28;20230;-69
2020/12/02 02:05:12;;;;;;;14.63;13.13;;;5.60;61.70;;;;;;5026766;28;20223;-68
2020/12/02 02:07:40;;;;;;;16.27;14.60;;;5.60;61.70;;;;;;5026174;28;20205;-69
2020/12/02 02:10:15;;;;;;;18.13;16.23;;;5.50;61.70;;;;;;5027353;28;20199;-68
2020/12/02 02:13:28;;;;;;;18.30;16.40;;;5.50;61.60;;;;;;5025846;28;20225;-68
2020/12/02 02:16:01;;;;;;;17.80;16.03;;;5.50;61.50;;;;;;5027710;28;20207;-69
2020/12/02 02:18:30;;;;;;;15.37;13.73;;;5.40;61.40;;;;;;5027183;28;20207;-70
2020/12/02 02:21:01;;;;;;;17.60;15.70;;;5.40;61.50;;;;;;5026404;28;20300;-67
2020/12/02 02:23:27;;;;;;;16.17;14.57;;;5.40;61.50;;;;;;5032058;28;20336;-69
2020/12/02 02:26:18;;;;;;;17.50;15.57;;;5.30;61.50;;;;;;5034072;28;20649;-67
2020/12/02 02:28:53;;;;;;;16.07;14.47;;;5.20;61.50;;;;;;5033276;28;20218;-68
2020/12/02 02:31:24;;;;;;;16.03;14.33;;;5.20;61.50;;;;;;5028585;28;20575;-69
2020/12/02 02:33:54;;;;;;;17.00;15.23;;;5.20;61.50;;;;;;5033566;28;20257;-69
2020/12/02 02:36:26;;;;;;;15.03;13.50;;;5.10;61.50;;;;;;5029704;28;20249;-70
2020/12/02 02:38:53;;;;;;;12.73;11.43;;;5.10;61.60;;;;;;5031840;28;20217;-68
2020/12/02 02:41:23;;;;;;;15.73;14.20;;;5.00;61.70;;;;;;5030613;28;20287;-68
2020/12/02 02:43:50;;;;;;;15.73;14.13;;;5.00;61.80;;;;;;5031089;28;20238;-69
2020/12/02 02:46:16;;;;;;;16.33;14.83;;;5.00;61.80;;;;;;5033344;28;20209;-70
2020/12/02 02:48:43;;;;;;;15.70;14.20;;;5.00;61.70;;;;;;5034283;28;20214;-67
2020/12/02 02:51:09;;;;;;;15.40;13.90;;;5.00;61.70;;;;;;5027522;28;20280;-67
2020/12/02 02:53:36;;;;;;;14.53;13.10;;;4.90;61.70;;;;;;5027844;28;20226;-68
2020/12/02 02:56:03;;;;;;;14.17;12.70;;;4.90;61.80;;;;;;5027892;28;20210;-68
2020/12/02 02:58:31;;;;;;;15.90;14.30;;;4.90;61.90;;;;;;5024565;28;20206;-67
2020/12/02 03:01:00;;;;;;;15.57;14.07;;;4.90;61.90;;;;;;5025107;28;20213;-67
2020/12/02 03:03:30;;;;;;;15.30;13.67;;;4.90;61.90;;;;;;5025854;28;20226;-68
2020/12/02 03:05:59;;;;;;;16.70;15.10;;;4.90;61.80;;;;;;5027774;28;20203;-69
2020/12/02 03:08:27;;;;;;;18.57;16.67;;;5.00;61.90;;;;;;5026603;28;20210;-69
2020/12/02 03:10:57;;;;;;;14.87;13.33;;;4.90;61.60;;;;;;5025426;28;20229;-70
2020/12/02 03:13:35;;;;;;;15.63;14.13;;;4.90;61.60;;;;;;5025939;28;20230;-68
2020/12/02 03:16:09;;;;;;;16.13;14.60;;;4.90;61.60;;;;;;5024615;28;20206;-69
2020/12/02 03:18:35;;;;;;;16.97;15.27;;;4.90;61.70;;;;;;5027172;28;20210;-69
2020/12/02 03:21:09;;;;;;;16.77;15.17;;;4.90;61.70;;;;;;5024353;28;20221;-69
2020/12/02 03:23:35;;;;;;;14.53;13.13;;;4.90;61.70;;;;;;5026074;28;20230;-69
2020/12/02 03:26:02;;;;;;;15.30;13.80;;;4.90;61.70;;;;;;5026098;28;20202;-69
2020/12/02 03:28:28;;;;;;;16.83;15.13;;;4.90;61.70;;;;;;5026572;28;20588;-68
2020/12/02 03:31:00;;;;;;;18.67;16.83;;;4.90;61.70;;;;;;5026107;28;20206;-70
2020/12/02 03:33:28;;;;;;;17.23;15.43;;;4.90;61.70;;;;;;5026188;28;20218;-70
2020/12/02 03:35:55;;;;;;;17.13;15.33;;;4.90;61.50;;;;;;5024462;28;20218;-68
2020/12/02 03:38:22;;;;;;;16.40;14.70;;;4.90;61.40;;;;;;5026389;28;20202;-69
2020/12/02 03:40:49;;;;;;;16.53;14.80;;;4.90;61.40;;;;;;5026481;28;20213;-69
2020/12/02 03:43:15;;;;;;;17.83;15.93;;;4.90;61.40;;;;;;5025151;28;20277;-69
2020/12/02 03:45:44;;;;;;;18.47;16.67;;;4.90;61.40;;;;;;5026857;28;20214;-68
2020/12/02 03:48:15;;;;;;;18.17;16.23;;;4.90;61.30;;;;;;5026322;28;20306;-71
2020/12/02 03:50:43;;;;;;;18.27;16.47;;;4.90;61.20;;;;;;5023954;28;20714;-70
2020/12/02 03:53:12;;;;;;;19.07;17.00;;;4.80;61.10;;;;;;5026655;28;20241;-68
2020/12/02 03:55:38;;;;;;;19.03;17.13;;;4.80;61.00;;;;;;5024720;28;20214;-68
2020/12/02 03:58:06;;;;;;;20.10;18.10;;;4.80;61.00;;;;;;5023541;28;20320;-69
2020/12/02 04:00:32;;;;;;;19.50;17.40;;;4.70;60.70;;;;;;5025516;28;20945;-69
2020/12/02 04:02:59;;;;;;;18.40;16.60;;;4.70;60.80;;;;;;5024087;28;20237;-69
2020/12/02 04:05:26;;;;;;;19.43;17.53;;;4.60;60.80;;;;;;5023911;28;20218;-68
2020/12/02 04:07:54;;;;;;;18.67;16.67;;;4.60;60.90;;;;;;5024644;28;20210;-69
2020/12/02 04:10:21;;;;;;;21.33;18.73;;;4.60;61.10;;;;;;5024810;28;20210;-69
2020/12/02 04:12:48;;;;;;;20.20;18.20;;;4.50;61.00;;;;;;5025841;28;20272;-69
2020/12/02 04:15:19;;;;;;;19.97;17.87;;;4.50;61.00;;;;;;5027128;28;20214;-70
2020/12/02 04:17:46;;;;;;;19.07;17.07;;;4.50;61.00;;;;;;5026282;28;20214;-69
2020/12/02 04:20:13;;;;;;;19.37;17.03;;;4.40;61.00;;;;;;5025051;28;20206;-69
2020/12/02 04:22:45;;;;;;;21.73;19.07;;;4.40;61.00;;;;;;5025085;28;20323;-69
2020/12/02 04:25:12;;;;;;;19.80;17.70;;;4.40;61.00;;;;;;5024336;28;20214;-68
2020/12/02 04:27:38;;;;;;;20.63;18.43;;;4.40;61.00;;;;;;5026115;28;20208;-70
2020/12/02 04:30:06;;;;;;;20.60;18.50;;;4.30;61.00;;;;;;5025111;28;20695;-69
2020/12/02 04:32:33;;;;;;;19.23;17.23;;;4.30;61.10;;;;;;5026376;28;20230;-68
2020/12/02 04:35:01;;;;;;;21.20;18.77;;;4.30;61.10;;;;;;5026282;28;20205;-68
2020/12/02 04:37:29;;;;;;;20.33;17.57;;;4.30;61.10;;;;;;5025834;28;20206;-69
2020/12/02 04:39:57;;;;;;;22.40;19.63;;;4.20;61.20;;;;;;5025636;28;20214;-68
2020/12/02 04:42:28;;;;;;;20.43;17.23;;;4.20;61.10;;;;;;5025446;28;20288;-69
2020/12/02 04:44:59;;;;;;;18.00;15.43;;;4.10;61.10;;;;;;5026522;28;20719;-69
2020/12/02 04:47:34;;;;;;;19.33;17.30;;;4.10;61.20;;;;;;5027284;28;20617;-68
2020/12/02 04:50:05;;;;;;;17.47;15.07;;;4.10;61.20;;;;;;5029700;28;20206;-70
2020/12/02 04:52:31;;;;;;;19.83;16.70;;;4.10;61.20;;;;;;5028781;28;20234;-69
2020/12/02 04:54:58;;;;;;;15.90;14.13;;;4.10;61.30;;;;;;5027918;28;20217;-68
2020/12/02 04:57:24;;;;;;;15.70;14.00;;;4.00;61.20;;;;;;5029937;28;20214;-67
2020/12/02 04:59:51;;;;;;;17.30;14.87;;;4.00;61.30;;;;;;5030509;28;20210;-68
2020/12/02 05:02:29;;;;;;;19.57;16.00;;;4.00;61.20;;;;;;5028070;28;20245;-68
2020/12/02 05:04:59;;;;;;;17.57;15.23;;;4.00;61.20;;;;;;5027001;28;20217;-69
2020/12/02 05:07:29;;;;;;;16.20;14.50;;;4.00;61.30;;;;;;5026485;28;20210;-68
2020/12/02 05:10:01;;;;;;;19.17;16.37;;;3.90;61.30;;;;;;5029325;28;20210;-69
2020/12/02 05:12:32;;;;;;;21.67;18.20;;;3.90;61.50;;;;;;5029088;28;20229;-69
2020/12/02 05:15:17;;;;;;;22.43;18.30;;;3.90;61.50;;;;;;5027215;28;20217;-69
2020/12/02 05:18:01;;;;;;;24.47;20.33;;;3.90;61.50;;;;;;5028650;28;20214;-68
2020/12/02 05:20:30;;;;;;;24.10;18.80;;;3.90;61.50;;;;;;5028262;28;20210;-69
2020/12/02 05:23:04;;;;;;;19.97;17.07;;;3.80;61.50;;;;;;5028342;28;20233;-70
2020/12/02 05:25:37;;;;;;;20.10;17.63;;;3.80;61.70;;;;;;5028315;28;20359;-68
2020/12/02 05:28:25;;;;;;;21.93;18.00;;;3.80;61.80;;;;;;5030318;28;20214;-67
2020/12/02 05:31:02;;;;;;;22.40;18.00;;;3.80;62.00;;;;;;5028583;28;20202;-70
2020/12/02 05:33:32;;;;;;;20.60;17.03;;;3.80;61.90;;;;;;5031825;28;20276;-70
2020/12/02 05:36:06;;;;;;;19.93;16.77;;;3.80;61.80;;;;;;5029997;28;20213;-70
2020/12/02 05:38:38;;;;;;;19.97;17.13;;;3.90;61.90;;;;;;5029900;28;20681;-69
2020/12/02 05:41:14;;;;;;;20.90;16.33;;;3.90;61.90;;;;;;5025284;28;20234;-68
2020/12/02 05:43:50;;;;;;;21.60;17.33;;;3.90;61.80;;;;;;5030738;28;20234;-69
2020/12/02 05:46:24;;;;;;;23.63;20.03;;;3.90;61.70;;;;;;5028393;28;20587;-70
2020/12/02 05:49:04;;;;;;;26.93;21.43;;;3.90;61.60;;;;;;5027652;28;20218;-70
2020/12/02 05:51:31;;;;;;;20.17;17.70;;;3.80;61.60;;;;;;5026567;28;20679;-69
2020/12/02 05:54:04;;;;;;;22.83;18.80;;;3.80;61.50;;;;;;5028214;28;20384;-68
2020/12/02 05:56:31;;;;;;;19.00;15.83;;;3.80;61.50;;;;;;5030885;28;20207;-69
2020/12/02 05:58:58;;;;;;;20.97;17.87;;;3.80;61.50;;;;;;5028678;28;20229;-68
2020/12/02 06:01:25;;;;;;;19.20;16.80;;;3.80;61.60;;;;;;5028008;28;20202;-69
2020/12/02 06:03:55;;;;;;;21.63;19.30;;;3.80;61.60;;;;;;5029263;28;20234;-69
2020/12/02 06:06:30;;;;;;;23.43;20.53;;;3.80;61.70;;;;;;5029536;28;20202;-70
2020/12/02 06:09:00;;;;;;;22.43;18.30;;;3.80;61.70;;;;;;5030648;28;20259;-69
2020/12/02 06:11:36;;;;;;;24.97;19.93;;;3.80;61.60;;;;;;5027251;28;20237;-68
2020/12/02 06:14:09;;;;;;;22.90;18.73;;;3.80;61.60;;;;;;5027474;28;21455;-69
2020/12/02 06:16:47;;;;;;;27.37;21.77;;;3.80;61.50;;;;;;5028965;28;20207;-69
2020/12/02 06:19:29;;;;;;;24.03;20.10;;;3.80;61.40;;;;;;5028563;28;20211;-68
2020/12/02 06:21:58;;;;;;;22.03;19.00;;;3.80;61.40;;;;;;5028797;28;20222;-69
2020/12/02 06:24:39;;;;;;;22.37;19.63;;;3.80;61.50;;;;;;5027132;28;21094;-68
2020/12/02 06:27:42;;;;;;;26.47;22.07;;;3.80;61.50;;;;;;5026441;28;20216;-68
2020/12/02 06:30:22;;;;;;;27.10;22.13;;;3.80;61.40;;;;;;5027347;28;20210;-70
2020/12/02 06:33:02;;;;;;;24.67;21.43;;;3.90;61.30;;;;;;5026053;28;20245;-70
2020/12/02 06:35:29;;;;;;;24.53;21.57;;;3.90;61.20;;;;;;5027876;28;20754;-70
2020/12/02 06:38:23;;;;;;;21.50;19.20;;;3.90;61.10;;;;;;5024110;28;20207;-70
2020/12/02 06:41:30;;;;;;;21.80;18.03;;;3.90;61.10;;;;;;5026936;28;20687;-70
2020/12/02 06:44:16;;;;;;;28.43;23.90;;;3.90;61.20;;;;;;5028908;28;20234;-70
2020/12/02 06:47:08;;;;;;;24.90;21.73;;;3.90;61.00;;;;;;5028354;28;20226;-67
2020/12/02 06:49:38;;;;;;;27.27;22.10;;;3.90;60.80;;;;;;5019941;28;20636;-69
2020/12/02 06:52:09;;;;;;;25.50;21.73;;;3.90;60.70;;;;;;5025969;28;20325;-68
2020/12/02 06:54:40;;;;;;;22.70;19.47;;;3.80;60.70;;;;;;5027829;28;20221;-69
2020/12/02 06:57:21;;;;;;;26.10;21.17;;;3.80;60.80;;;;;;5025151;28;20237;-69
2020/12/02 06:59:56;;;;;;;19.57;17.07;;;3.80;60.80;;;;;;5028296;28;20206;-69
2020/12/02 07:02:40;;;;;;;20.93;18.43;;;3.80;60.80;;;;;;5026231;28;20249;-69
2020/12/02 07:05:13;;;;;;;25.47;21.77;;;3.80;61.00;;;;;;5028198;28;20206;-69
2020/12/02 07:07:40;;;;;;;27.97;23.13;;;3.80;61.00;;;;;;5028002;28;20206;-67
2020/12/02 07:10:20;;;;;;;22.20;19.77;;;3.80;60.80;;;;;;5031511;28;20211;-72
2020/12/02 07:12:55;;;;;;;23.37;20.57;;;3.80;60.90;;;;;;5035930;28;20237;-71
2020/12/02 07:15:24;;;;;;;24.10;19.30;;;3.80;61.00;;;;;;5036730;28;20213;-68
2020/12/02 07:17:51;;;;;;;25.87;22.03;;;3.90;61.10;;;;;;5036875;28;20236;-71
2020/12/02 07:20:19;;;;;;;26.60;21.77;;;3.80;61.00;;;;;;5035092;28;20241;-68
2020/12/02 07:22:52;;;;;;;28.03;22.50;;;3.90;61.00;;;;;;5033662;28;20284;-72
2020/12/02 07:25:23;;;;;;;23.83;19.97;;;3.90;61.00;;;;;;5029663;28;20534;-72
2020/12/02 07:27:50;;;;;;;22.87;20.37;;;3.90;61.00;;;;;;5029768;28;20746;-71
2020/12/02 07:30:30;;;;;;;24.57;21.60;;;3.90;61.00;;;;;;5030034;28;20305;-71
2020/12/02 07:33:16;;;;;;;21.73;18.20;;;3.90;61.00;;;;;;5028835;28;20311;-71
2020/12/02 07:35:43;;;;;;;21.40;18.80;;;3.90;60.80;;;;;;5029517;28;20256;-71
2020/12/02 07:38:13;;;;;;;25.10;20.80;;;3.90;60.70;;;;;;5029153;28;20210;-69
2020/12/02 07:40:42;;;;;;;28.60;23.87;;;4.00;60.90;;;;;;5026769;28;20257;-71
2020/12/02 07:43:26;;;;;;;25.93;22.27;;;4.00;60.90;;;;;;5027118;28;20542;-71
2020/12/02 07:45:58;;;;;;;24.87;22.07;;;4.00;60.70;;;;;;5023852;28;20209;-71
2020/12/02 07:48:28;;;;;;;26.73;23.87;;;4.00;60.80;;;;;;5025881;28;20206;-71
2020/12/02 07:51:00;;;;;;;24.27;20.63;;;4.00;60.70;;;;;;5026707;28;20623;-70
2020/12/02 07:53:42;;;;;;;23.63;19.37;;;4.00;60.60;;;;;;5026853;28;20230;-70
2020/12/02 07:56:23;;;;;;;21.93;18.27;;;4.00;60.60;;;;;;5024275;28;20217;-70
2020/12/02 07:58:51;;;;;;;25.13;21.47;;;3.90;60.60;;;;;;5029700;28;20232;-71
2020/12/02 08:01:49;;;;;;;25.07;20.80;;;4.00;60.80;;;;;;5025478;28;20214;-71
2020/12/02 08:04:38;;;;;;;24.73;21.60;;;4.00;60.70;;;;;;5028717;28;20237;-72
2020/12/02 08:07:08;;;;;;;21.70;18.57;;;4.00;60.50;;;;;;5027700;28;20218;-70
2020/12/02 08:09:39;;;;;;;20.20;17.87;;;4.00;60.50;;;;;;5028989;28;20203;-70
2020/12/02 08:12:11;;;;;;;19.93;17.63;;;4.00;60.60;;;;;;5026898;28;20249;-73
2020/12/02 08:14:41;;;;;;;19.43;17.03;;;4.00;60.60;;;;;;5028178;28;20552;-71
2020/12/02 08:17:34;;;;;;;21.07;18.57;;;4.00;60.80;;;;;;5030980;28;20249;-72
2020/12/02 08:20:31;;;;;;;21.73;18.40;;;4.10;60.80;;;;;;5033381;28;20229;-72
2020/12/02 08:23:03;;;;;;;20.70;17.80;;;4.10;60.40;;;;;;5029365;28;20249;-70
2020/12/02 08:25:36;;;;;;;19.83;17.60;;;4.20;60.50;;;;;;5027991;28;20221;-71
2020/12/02 08:28:10;;;;;;;19.57;17.23;;;4.20;60.60;;;;;;5031550;28;20211;-72
2020/12/02 08:30:38;;;;;;;19.27;17.17;;;4.30;60.70;;;;;;5028634;28;20255;-71
2020/12/02 08:33:11;;;;;;;20.93;18.73;;;4.30;60.70;;;;;;5028670;28;20711;-73
2020/12/02 08:35:41;;;;;;;20.00;17.80;;;4.40;60.50;;;;;;5030790;28;20206;-72
2020/12/02 08:38:14;;;;;;;19.53;17.53;;;4.40;60.40;;;;;;5030128;28;20237;-71
2020/12/02 08:40:48;;;;;;;18.20;16.30;;;4.40;60.10;;;;;;5031698;28;20217;-72
2020/12/02 08:43:37;;;;;;;16.57;14.90;;;4.50;60.10;;;;;;5032999;28;20493;-72
2020/12/02 08:46:22;;;;;;;18.67;16.30;;;4.50;60.00;;;;;;5032732;28;20202;-70
2020/12/02 08:48:52;;;;;;;15.30;13.70;;;4.50;59.70;;;;;;5028641;28;20583;-73
2020/12/02 08:51:22;;;;;;;18.07;16.03;;;4.50;59.70;;;;;;5028254;28;20203;-74
2020/12/02 08:53:49;;;;;;;16.33;14.63;;;4.60;59.80;;;;;;5028591;28;20230;-74
2020/12/02 08:56:32;;;;;;;16.37;14.63;;;4.60;59.70;;;;;;5031641;28;20233;-72
2020/12/02 08:59:00;;;;;;;16.00;14.30;;;4.60;59.60;;;;;;5028854;28;20206;-72
2020/12/02 09:01:27;;;;;;;16.43;14.73;;;4.60;59.60;;;;;;5028900;28;20217;-72
2020/12/02 09:03:54;;;;;;;17.20;15.13;;;4.60;59.60;;;;;;5030807;28;20333;-70
2020/12/02 09:06:22;;;;;;;19.00;15.87;;;4.60;59.50;;;;;;5032068;28;20199;-73
2020/12/02 09:08:50;;;;;;;17.43;15.57;;;4.60;59.20;;;;;;5027183;28;20241;-72
2020/12/02 09:11:24;;;;;;;18.20;15.87;;;4.50;59.20;;;;;;5026906;28;20219;-70
2020/12/02 09:13:51;;;;;;;17.80;15.37;;;4.50;59.30;;;;;;5027918;28;20222;-72
2020/12/02 09:16:26;;;;;;;17.83;15.03;;;4.50;59.40;;;;;;5029374;28;20202;-74
2020/12/02 09:18:54;;;;;;;17.07;15.07;;;4.40;59.50;;;;;;5028583;28;20240;-71
2020/12/02 09:21:22;;;;;;;19.27;15.97;;;4.50;59.50;;;;;;5029680;28;20210;-72
2020/12/02 09:23:49;;;;;;;17.33;15.17;;;4.50;59.60;;;;;;5029949;28;20678;-72
2020/12/02 09:26:19;;;;;;;16.17;14.40;;;4.50;59.60;;;;;;5032085;28;20206;-71
2020/12/02 09:28:47;;;;;;;18.97;16.97;;;4.50;59.50;;;;;;5028485;28;20210;-73
2020/12/02 09:31:14;;;;;;;18.10;15.80;;;4.50;59.40;;;;;;5025902;28;20221;-71
2020/12/02 09:33:41;;;;;;;15.20;13.60;;;4.60;59.40;;;;;;5024004;28;20748;-74
2020/12/02 09:36:07;;;;;;;17.30;14.97;;;4.60;59.30;;;;;;5030452;28;20210;-72
2020/12/02 09:38:34;;;;;;;16.70;14.70;;;4.60;59.20;;;;;;5030593;28;20268;-72
2020/12/02 09:41:24;;;;;;;15.40;13.80;;;4.60;59.20;;;;;;5032026;28;20207;-71
2020/12/02 09:44:28;;;;;;;14.73;13.23;;;4.60;59.20;;;;;;5031863;28;20258;-73
2020/12/02 09:46:59;;;;;;;16.07;14.33;;;4.60;59.20;;;;;;5026106;28;20666;-72
2020/12/02 09:49:26;;;;;;;18.97;16.57;;;4.60;59.40;;;;;;5030099;28;20536;-74
2020/12/02 09:52:05;;;;;;;15.77;14.07;;;4.60;59.30;;;;;;5029550;28;20237;-71
2020/12/02 09:54:39;;;;;;;18.00;15.60;;;4.60;59.20;;;;;;5031631;28;20824;-71
2020/12/02 09:57:15;;;;;;;19.67;17.57;;;4.70;59.20;;;;;;5028657;28;20725;-73
2020/12/02 09:59:44;;;;;;;20.00;17.90;;;4.70;59.10;;;;;;5031357;28;20213;-72
2020/12/02 10:02:33;;;;;;;18.37;16.37;;;4.70;59.00;;;;;;5028105;28;20230;-73
2020/12/02 10:05:47;;;;;;;16.37;14.67;;;4.60;58.80;;;;;;5026759;28;20201;-72
2020/12/02 10:08:27;;;;;;;16.47;14.67;;;4.60;58.90;;;;;;5017779;28;20206;-71
2020/12/02 10:11:01;;;;;;;17.30;14.77;;;4.60;58.80;;;;;;5026243;28;20559;-73
2020/12/02 10:14:07;;;;;;;19.47;16.90;;;4.60;58.80;;;;;;5029124;28;20230;-73
2020/12/02 10:16:44;;;;;;;17.07;14.67;;;4.60;58.80;;;;;;5027620;28;20216;-72
2020/12/02 10:19:49;;;;;;;15.63;13.93;;;4.60;58.80;;;;;;5029902;28;20209;-73
2020/12/02 10:22:38;;;;;;;15.57;13.90;;;4.50;58.60;;;;;;5025875;28;20332;-72
2020/12/02 10:25:26;;;;;;;14.37;12.87;;;4.60;58.80;;;;;;5030588;28;20209;-72
2020/12/02 10:28:13;;;;;;;15.10;13.47;;;4.60;58.80;;;;;;5028617;28;20742;-73
2020/12/02 10:30:56;;;;;;;14.57;13.03;;;4.60;58.80;;;;;;5026148;28;20206;-73
2020/12/02 10:33:49;;;;;;;14.23;12.27;;;4.60;58.90;;;;;;5027573;28;20230;-72
2020/12/02 10:36:17;;;;;;;12.50;11.20;;;4.60;58.70;;;;;;5020928;28;20214;-72
2020/12/02 10:38:48;;;;;;;17.70;15.80;;;4.70;59.00;;;;;;5032214;28;20214;-72
2020/12/02 10:41:29;;;;;;;18.13;16.23;;;4.70;59.00;;;;;;5025986;28;20806;-72
2020/12/02 10:44:28;;;;;;;18.70;16.13;;;4.80;58.90;;;;;;5028362;28;20266;-71
2020/12/02 10:47:28;;;;;;;16.57;14.77;;;4.80;58.80;;;;;;5027086;28;20213;-73
2020/12/02 10:49:56;;;;;;;16.13;14.43;;;4.80;58.70;;;;;;5005883;28;20206;-72
2020/12/02 10:52:24;;;;;;;16.23;14.10;;;4.80;58.80;;;;;;5027353;28;20607;-72
2020/12/02 10:54:53;;;;;;;16.50;14.70;;;4.80;58.70;;;;;;5030271;28;20316;-73
2020/12/02 10:57:25;;;;;;;15.23;13.67;;;4.80;58.80;;;;;;5026588;28;20217;-70
2020/12/02 11:00:03;;;;;;;19.03;16.90;;;4.80;58.70;;;;;;5028276;28;20573;-73
2020/12/02 11:02:31;;;;;;;21.27;18.67;;;4.90;58.80;;;;;;5058180;22;20235;-69
2020/12/02 11:04:59;;;;;;;19.77;17.70;;;4.90;58.60;;;;;;5050356;28;20229;-72
2020/12/02 11:11:18;;;;;;;17.60;15.70;;;4.90;58.40;;;;;;5018735;28;20206;-72
2020/12/02 11:13:58;;;;;;;15.00;13.50;;;4.90;58.50;;;;;;5027584;28;20288;-72
2020/12/02 11:16:37;;;;;;;16.07;14.37;;;4.80;58.50;;;;;;5024658;28;20253;-70
2020/12/02 11:19:28;;;;;;;17.07;15.17;;;4.90;58.60;;;;;;5028465;28;20205;-72
2020/12/02 11:22:14;;;;;;;16.57;14.77;;;4.90;58.70;;;;;;5027777;28;20230;-72
2020/12/02 11:25:02;;;;;;;18.23;16.33;;;4.90;58.50;;;;;;5024297;28;20318;-73
2020/12/02 11:27:30;;;;;;;18.40;16.53;;;4.90;58.40;;;;;;5027942;28;20206;-73
2020/12/02 11:29:57;;;;;;;19.53;16.03;;;4.90;58.40;;;;;;5024391;28;20596;-73
2020/12/02 11:33:14;;;;;;;17.23;15.37;;;4.90;58.20;;;;;;5026055;28;20607;-72
2020/12/02 11:36:25;;;;;;;17.40;15.60;;;4.90;58.20;;;;;;5020737;28;20222;-71
2020/12/02 11:39:07;;;;;;;17.07;14.63;;;4.90;58.20;;;;;;4992979;28;20675;-73
2020/12/02 11:41:46;;;;;;;16.83;15.03;;;4.90;58.20;;;;;;5023318;28;20206;-72
2020/12/02 11:44:26;;;;;;;17.13;15.00;;;4.90;58.30;;;;;;5024443;28;20218;-73
2020/12/02 11:47:06;;;;;;;17.60;15.70;;;4.90;58.30;;;;;;5026373;28;20204;-72
2020/12/02 11:49:38;;;;;;;17.40;15.60;;;4.90;58.40;;;;;;5026002;28;20214;-73
2020/12/02 11:52:19;;;;;;;17.23;15.43;;;4.90;58.40;;;;;;5026077;28;20218;-73
2020/12/02 11:54:46;;;;;;;15.77;14.20;;;4.90;58.30;;;;;;5031358;28;20218;-72
2020/12/02 11:57:14;;;;;;;17.77;15.43;;;4.90;58.40;;;;;;5030873;28;20214;-73
2020/12/02 11:59:54;;;;;;;15.93;14.33;;;4.90;58.40;;;;;;5029466;28;20202;-69
2020/12/02 12:02:46;;;;;;;16.47;14.87;;;4.90;58.40;;;;;;5030030;28;20316;-68
2020/12/02 12:05:32;;;;;;;16.53;14.23;;;4.90;58.30;;;;;;5031158;28;20264;-68
2020/12/02 12:08:11;;;;;;;21.93;18.87;;;5.00;58.40;;;;;;5030228;28;20586;-69
2020/12/02 12:11:30;;;;;;;17.77;15.97;;;5.00;58.30;;;;;;5031284;28;20217;-70
2020/12/02 12:14:06;;;;;;;18.77;16.87;;;5.00;58.10;;;;;;5008704;28;20225;-68
2020/12/02 12:16:47;;;;;;;19.90;17.80;;;5.00;58.30;;;;;;5027700;28;20202;-69
2020/12/02 12:19:30;;;;;;;23.33;19.73;;;5.00;58.20;;;;;;5025937;28;20210;-71
2020/12/02 12:22:29;;;;;;;22.73;20.33;;;5.00;58.00;;;;;;5025758;28;20218;-70
2020/12/02 12:25:09;;;;;;;20.30;18.13;;;5.00;57.60;;;;;;5013855;28;20233;-75
2020/12/02 12:27:39;;;;;;;19.90;17.87;;;4.90;57.50;;;;;;5028761;28;20297;-71
2020/12/02 12:30:10;;;;;;;21.67;19.33;;;4.90;57.50;;;;;;5031026;28;20230;-69
2020/12/02 12:32:47;;;;;;;20.33;18.17;;;4.80;57.60;;;;;;5030101;28;20230;-71
2020/12/02 12:35:22;;;;;;;21.40;18.60;;;4.80;57.60;;;;;;5029692;28;20302;-70
2020/12/02 12:38:22;;;;;;;20.10;18.10;;;4.70;57.50;;;;;;5029326;28;20214;-71
2020/12/02 12:40:57;;;;;;;18.83;16.90;;;4.60;57.50;;;;;;5032321;28;20213;-70
2020/12/02 12:43:35;;;;;;;18.17;16.30;;;4.50;57.50;;;;;;5026352;28;20269;-67
2020/12/02 12:46:25;;;;;;;18.80;16.80;;;4.50;57.60;;;;;;5029114;28;20213;-69
2020/12/02 12:48:56;;;;;;;17.17;15.37;;;4.50;57.70;;;;;;5028213;28;20578;-70
2020/12/02 12:51:24;;;;;;;17.10;15.40;;;4.50;57.80;;;;;;5030851;28;20256;-69
2020/12/02 12:53:52;;;;;;;20.40;18.23;;;4.40;57.90;;;;;;5031519;28;20226;-69
2020/12/02 12:56:22;;;;;;;18.87;16.87;;;4.40;57.90;;;;;;5031727;28;20210;-69
2020/12/02 12:58:49;;;;;;;17.73;15.83;;;4.50;57.80;;;;;;5029423;28;20206;-69
2020/12/02 13:01:17;;;;;;;16.93;15.23;;;4.40;57.70;;;;;;5028527;28;20214;-69
2020/12/02 13:03:44;;;;;;;16.87;15.17;;;4.40;57.80;;;;;;5028615;28;20237;-70
2020/12/02 13:06:30;;;;;;;15.43;13.93;;;4.50;57.90;;;;;;5030253;28;20584;-69
2020/12/02 13:09:08;;;;;;;17.73;15.83;;;4.40;57.80;;;;;;5031246;28;20213;-68
2020/12/02 13:11:54;;;;;;;16.50;14.80;;;4.50;58.00;;;;;;5028962;28;20331;-75
2020/12/02 13:14:33;;;;;;;17.73;15.97;;;4.50;57.80;;;;;;5031958;28;20210;-68
2020/12/02 13:17:09;;;;;;;16.53;14.60;;;4.50;57.80;;;;;;5025700;28;20870;-69
2020/12/02 13:19:48;;;;;;;19.00;17.13;;;4.50;57.70;;;;;;5028742;28;20583;-69